sensor_id;sensor_type;location;lat;lon;timestamp;temperature;humidity
40257;DHT22;25977;45.462;9.210;2024-03-23T00:55:28;17.30;91.70
40257;DHT22;25977;45.462;9.210;2024-03-23T00:57:53;17.30;91.60
40257;DHT22;25977;45.462;9.210;2024-03-23T01:00:19;17.20;91.50
40257;DHT22;25977;45.462;9.210;2024-03-23T01:02:45;17.30;91.40
40257;DHT22;25977;45.462;9.210;2024-03-23T01:05:10;17.30;91.40
40257;DHT22;25977;45.462;9.210;2024-03-23T01:07:36;17.30;91.50
40257;DHT22;25977;45.462;9.210;2024-03-23T01:10:02;17.30;91.30
40257;DHT22;25977;45.462;9.210;2024-03-23T01:12:27;17.30;91.30
40257;DHT22;25977;45.462;9.210;2024-03-23T01:14:53;17.30;91.40
40257;DHT22;25977;45.462;9.210;2024-03-23T01:17:19;17.30;91.40
40257;DHT22;25977;45.462;9.210;2024-03-23T01:19:44;17.30;91.40
40257;DHT22;25977;45.462;9.210;2024-03-23T01:22:10;17.30;91.50
40257;DHT22;25977;45.462;9.210;2024-03-23T01:24:36;17.30;91.50
40257;DHT22;25977;45.462;9.210;2024-03-23T01:27:01;17.30;91.60
40257;DHT22;25977;45.462;9.210;2024-03-23T01:29:27;17.30;91.40
40257;DHT22;25977;45.462;9.210;2024-03-23T01:31:53;17.30;91.40
40257;DHT22;25977;45.462;9.210;2024-03-23T01:34:18;17.30;91.40
40257;DHT22;25977;45.462;9.210;2024-03-23T01:36:46;17.30;91.40
40257;DHT22;25977;45.462;9.210;2024-03-23T01:39:12;17.30;91.40
40257;DHT22;25977;45.462;9.210;2024-03-23T01:41:38;17.30;91.40
40257;DHT22;25977;45.462;9.210;2024-03-23T01:44:08;17.30;91.40
40257;DHT22;25977;45.462;9.210;2024-03-23T01:46:37;17.30;91.40
40257;DHT22;25977;45.462;9.210;2024-03-23T01:49:04;17.30;91.40
40257;DHT22;25977;45.462;9.210;2024-03-23T01:51:30;17.20;91.50
40257;DHT22;25977;45.462;9.210;2024-03-23T01:53:57;17.20;91.30
40257;DHT22;25977;45.462;9.210;2024-03-23T01:56:23;17.20;91.40
40257;DHT22;25977;45.462;9.210;2024-03-23T01:58:48;17.20;91.50
40257;DHT22;25977;45.462;9.210;2024-03-23T02:01:14;17.20;91.40
40257;DHT22;25977;45.462;9.210;2024-03-23T02:03:40;17.20;91.40
40257;DHT22;25977;45.462;9.210;2024-03-23T02:06:05;17.20;91.50
40257;DHT22;25977;45.462;9.210;2024-03-23T02:08:33;17.20;91.50
40257;DHT22;25977;45.462;9.210;2024-03-23T02:10:59;17.10;91.40
40257;DHT22;25977;45.462;9.210;2024-03-23T02:13:25;17.10;91.20
40257;DHT22;25977;45.462;9.210;2024-03-23T02:15:50;17.10;91.20
40257;DHT22;25977;45.462;9.210;2024-03-23T02:18:16;17.10;91.30
40257;DHT22;25977;45.462;9.210;2024-03-23T02:20:42;17.10;91.30
40257;DHT22;25977;45.462;9.210;2024-03-23T02:23:17;17.10;91.40
40257;DHT22;25977;45.462;9.210;2024-03-23T02:25:45;17.00;91.20
40257;DHT22;25977;45.462;9.210;2024-03-23T02:28:11;17.00;91.20
40257;DHT22;25977;45.462;9.210;2024-03-23T02:30:37;17.00;91.30
40257;DHT22;25977;45.462;9.210;2024-03-23T02:33:03;17.00;91.60
40257;DHT22;25977;45.462;9.210;2024-03-23T02:35:29;17.00;91.50
40257;DHT22;25977;45.462;9.210;2024-03-23T02:37:55;17.00;91.50
40257;DHT22;25977;45.462;9.210;2024-03-23T02:40:23;17.00;91.50
40257;DHT22;25977;45.462;9.210;2024-03-23T02:42:49;17.00;91.40
40257;DHT22;25977;45.462;9.210;2024-03-23T02:45:15;17.00;91.40
40257;DHT22;25977;45.462;9.210;2024-03-23T02:47:40;16.80;91.30
40257;DHT22;25977;45.462;9.210;2024-03-23T02:50:06;16.80;91.30
40257;DHT22;25977;45.462;9.210;2024-03-23T02:52:33;16.80;91.40
40257;DHT22;25977;45.462;9.210;2024-03-23T02:54:58;16.80;91.40
40257;DHT22;25977;45.462;9.210;2024-03-23T02:57:24;16.80;91.40
40257;DHT22;25977;45.462;9.210;2024-03-23T02:59:50;16.90;91.50
40257;DHT22;25977;45.462;9.210;2024-03-23T03:02:15;16.80;91.40
40257;DHT22;25977;45.462;9.210;2024-03-23T03:04:41;16.80;91.20
40257;DHT22;25977;45.462;9.210;2024-03-23T03:07:07;16.80;91.20
40257;DHT22;25977;45.462;9.210;2024-03-23T03:09:33;16.80;91.30
40257;DHT22;25977;45.462;9.210;2024-03-23T03:12:03;16.80;91.40
40257;DHT22;25977;45.462;9.210;2024-03-23T03:14:29;16.90;91.50
40257;DHT22;25977;45.462;9.210;2024-03-23T03:16:55;16.90;91.50
40257;DHT22;25977;45.462;9.210;2024-03-23T03:19:20;16.90;91.60
40257;DHT22;25977;45.462;9.210;2024-03-23T03:21:46;16.90;91.50
40257;DHT22;25977;45.462;9.210;2024-03-23T03:24:13;16.80;91.60
40257;DHT22;25977;45.462;9.210;2024-03-23T03:26:39;16.80;91.60
40257;DHT22;25977;45.462;9.210;2024-03-23T03:29:04;16.90;91.60
40257;DHT22;25977;45.462;9.210;2024-03-23T03:31:30;16.80;91.50
40257;DHT22;25977;45.462;9.210;2024-03-23T03:33:56;16.80;91.50
40257;DHT22;25977;45.462;9.210;2024-03-23T03:36:22;16.80;91.50
40257;DHT22;25977;45.462;9.210;2024-03-23T03:38:48;16.80;91.50
40257;DHT22;25977;45.462;9.210;2024-03-23T03:41:13;16.80;91.50
40257;DHT22;25977;45.462;9.210;2024-03-23T03:43:39;16.80;91.50
40257;DHT22;25977;45.462;9.210;2024-03-23T03:46:05;16.80;91.50
40257;DHT22;25977;45.462;9.210;2024-03-23T03:48:33;16.80;91.50
40257;DHT22;25977;45.462;9.210;2024-03-23T03:50:59;16.80;91.60
40257;DHT22;25977;45.462;9.210;2024-03-23T03:53:24;16.70;91.60
40257;DHT22;25977;45.462;9.210;2024-03-23T03:55:50;16.80;91.60
40257;DHT22;25977;45.462;9.210;2024-03-23T03:58:15;16.80;91.60
40257;DHT22;25977;45.462;9.210;2024-03-23T04:00:41;16.70;91.60
40257;DHT22;25977;45.462;9.210;2024-03-23T04:03:06;16.70;91.60
40257;DHT22;25977;45.462;9.210;2024-03-23T04:05:32;16.70;91.70
40257;DHT22;25977;45.462;9.210;2024-03-23T04:07:58;16.60;91.70
40257;DHT22;25977;45.462;9.210;2024-03-23T04:10:24;16.60;91.80
40257;DHT22;25977;45.462;9.210;2024-03-23T04:12:50;16.60;91.90
40257;DHT22;25977;45.462;9.210;2024-03-23T04:15:16;16.50;91.80
40257;DHT22;25977;45.462;9.210;2024-03-23T04:17:42;16.50;91.80
40257;DHT22;25977;45.462;9.210;2024-03-23T04:20:09;16.40;91.80
40257;DHT22;25977;45.462;9.210;2024-03-23T04:22:37;16.40;91.80
40257;DHT22;25977;45.462;9.210;2024-03-23T04:25:03;16.30;91.90
40257;DHT22;25977;45.462;9.210;2024-03-23T04:27:33;16.30;91.90
40257;DHT22;25977;45.462;9.210;2024-03-23T04:29:59;16.30;91.80
40257;DHT22;25977;45.462;9.210;2024-03-23T04:32:26;16.30;91.90
40257;DHT22;25977;45.462;9.210;2024-03-23T04:34:52;16.20;91.90
40257;DHT22;25977;45.462;9.210;2024-03-23T04:37:18;16.20;92.00
40257;DHT22;25977;45.462;9.210;2024-03-23T04:39:43;16.20;92.10
40257;DHT22;25977;45.462;9.210;2024-03-23T04:42:09;16.20;92.00
40257;DHT22;25977;45.462;9.210;2024-03-23T04:44:34;16.20;91.90
40257;DHT22;25977;45.462;9.210;2024-03-23T04:47:00;16.10;91.90
40257;DHT22;25977;45.462;9.210;2024-03-23T04:49:26;16.10;91.90
40257;DHT22;25977;45.462;9.210;2024-03-23T04:51:52;16.10;91.90
40257;DHT22;25977;45.462;9.210;2024-03-23T04:54:18;16.10;91.90
40257;DHT22;25977;45.462;9.210;2024-03-23T04:56:43;16.10;91.90
40257;DHT22;25977;45.462;9.210;2024-03-23T04:59:09;16.00;91.90
40257;DHT22;25977;45.462;9.210;2024-03-23T05:01:35;16.10;91.90
40257;DHT22;25977;45.462;9.210;2024-03-23T05:04:04;16.00;91.90
40257;DHT22;25977;45.462;9.210;2024-03-23T05:06:30;16.00;92.00
40257;DHT22;25977;45.462;9.210;2024-03-23T05:08:56;16.00;92.00
40257;DHT22;25977;45.462;9.210;2024-03-23T05:11:22;16.00;92.00
40257;DHT22;25977;45.462;9.210;2024-03-23T05:13:47;16.00;92.10
40257;DHT22;25977;45.462;9.210;2024-03-23T05:16:13;16.00;92.10
40257;DHT22;25977;45.462;9.210;2024-03-23T05:18:39;16.00;92.10
40257;DHT22;25977;45.462;9.210;2024-03-23T05:21:04;15.90;92.10
40257;DHT22;25977;45.462;9.210;2024-03-23T05:23:30;15.90;92.00
40257;DHT22;25977;45.462;9.210;2024-03-23T05:25:56;15.90;92.10
40257;DHT22;25977;45.462;9.210;2024-03-23T05:28:22;16.00;92.10
40257;DHT22;25977;45.462;9.210;2024-03-23T05:30:54;15.90;92.10
40257;DHT22;25977;45.462;9.210;2024-03-23T05:33:20;15.90;92.10
40257;DHT22;25977;45.462;9.210;2024-03-23T05:35:46;15.90;92.20
40257;DHT22;25977;45.462;9.210;2024-03-23T05:38:13;15.90;92.10
40257;DHT22;25977;45.462;9.210;2024-03-23T05:40:39;15.90;92.20
40257;DHT22;25977;45.462;9.210;2024-03-23T05:43:08;15.90;92.10
40257;DHT22;25977;45.462;9.210;2024-03-23T05:45:34;15.90;92.10
40257;DHT22;25977;45.462;9.210;2024-03-23T05:48:00;15.90;92.00
40257;DHT22;25977;45.462;9.210;2024-03-23T05:50:26;16.00;91.90
40257;DHT22;25977;45.462;9.210;2024-03-23T05:52:52;16.00;91.90
40257;DHT22;25977;45.462;9.210;2024-03-23T05:55:17;16.00;91.90
40257;DHT22;25977;45.462;9.210;2024-03-23T05:57:43;16.00;91.90
40257;DHT22;25977;45.462;9.210;2024-03-23T06:00:09;16.00;91.80
40257;DHT22;25977;45.462;9.210;2024-03-23T06:02:42;16.10;91.80
40257;DHT22;25977;45.462;9.210;2024-03-23T06:05:10;16.10;91.80
40257;DHT22;25977;45.462;9.210;2024-03-23T06:07:36;16.10;91.80
40257;DHT22;25977;45.462;9.210;2024-03-23T06:10:02;16.10;91.80
40257;DHT22;25977;45.462;9.210;2024-03-23T06:12:28;16.20;92.00
40257;DHT22;25977;45.462;9.210;2024-03-23T06:14:53;16.30;92.20
40257;DHT22;25977;45.462;9.210;2024-03-23T06:17:19;16.30;92.60
40257;DHT22;25977;45.462;9.210;2024-03-23T06:19:45;16.40;92.30
40257;DHT22;25977;45.462;9.210;2024-03-23T06:22:10;16.40;91.90
40257;DHT22;25977;45.462;9.210;2024-03-23T06:24:36;16.50;91.90
40257;DHT22;25977;45.462;9.210;2024-03-23T06:27:01;16.60;91.90
40257;DHT22;25977;45.462;9.210;2024-03-23T06:29:27;16.70;92.20
40257;DHT22;25977;45.462;9.210;2024-03-23T06:31:56;16.70;91.80
40257;DHT22;25977;45.462;9.210;2024-03-23T06:34:22;16.80;91.60
40257;DHT22;25977;45.462;9.210;2024-03-23T06:36:48;16.80;91.40
40257;DHT22;25977;45.462;9.210;2024-03-23T06:39:15;16.80;91.30
40257;DHT22;25977;45.462;9.210;2024-03-23T06:41:51;16.90;91.40
40257;DHT22;25977;45.462;9.210;2024-03-23T06:44:18;16.90;91.30
40257;DHT22;25977;45.462;9.210;2024-03-23T06:46:44;17.00;91.10
40257;DHT22;25977;45.462;9.210;2024-03-23T06:49:11;17.30;91.20
40257;DHT22;25977;45.462;9.210;2024-03-23T06:51:36;17.90;90.70
40257;DHT22;25977;45.462;9.210;2024-03-23T06:54:05;18.70;90.00
40257;DHT22;25977;45.462;9.210;2024-03-23T06:56:31;19.40;88.50
40257;DHT22;25977;45.462;9.210;2024-03-23T06:58:57;20.10;87.30
40257;DHT22;25977;45.462;9.210;2024-03-23T07:01:23;20.70;86.10
40257;DHT22;25977;45.462;9.210;2024-03-23T07:03:48;21.20;84.90
40257;DHT22;25977;45.462;9.210;2024-03-23T07:06:14;21.50;84.20
40257;DHT22;25977;45.462;9.210;2024-03-23T07:08:40;21.80;83.70
40257;DHT22;25977;45.462;9.210;2024-03-23T07:11:05;22.10;83.20
40257;DHT22;25977;45.462;9.210;2024-03-23T07:13:31;22.30;82.80
40257;DHT22;25977;45.462;9.210;2024-03-23T07:15:57;22.50;82.60
40257;DHT22;25977;45.462;9.210;2024-03-23T07:18:23;22.50;82.30
40257;DHT22;25977;45.462;9.210;2024-03-23T07:20:56;22.50;82.30
40257;DHT22;25977;45.462;9.210;2024-03-23T07:23:22;22.80;82.10
40257;DHT22;25977;45.462;9.210;2024-03-23T07:26:05;22.90;81.80
40257;DHT22;25977;45.462;9.210;2024-03-23T07:28:34;23.00;81.60
40257;DHT22;25977;45.462;9.210;2024-03-23T07:31:08;23.00;81.30
40257;DHT22;25977;45.462;9.210;2024-03-23T07:33:35;22.80;81.50
40257;DHT22;25977;45.462;9.210;2024-03-23T07:36:01;22.40;82.10
40257;DHT22;25977;45.462;9.210;2024-03-23T07:38:31;21.90;82.90
40257;DHT22;25977;45.462;9.210;2024-03-23T07:41:17;21.50;83.70
40257;DHT22;25977;45.462;9.210;2024-03-23T07:43:43;21.10;84.50
40257;DHT22;25977;45.462;9.210;2024-03-23T07:46:09;20.80;85.30
40257;DHT22;25977;45.462;9.210;2024-03-23T07:48:35;20.40;85.90
40257;DHT22;25977;45.462;9.210;2024-03-23T07:51:08;20.10;86.70
40257;DHT22;25977;45.462;9.210;2024-03-23T07:53:36;19.80;87.20
40257;DHT22;25977;45.462;9.210;2024-03-23T07:56:07;19.60;87.80
40257;DHT22;25977;45.462;9.210;2024-03-23T07:58:33;19.10;89.00
40257;DHT22;25977;45.462;9.210;2024-03-23T08:01:12;19.00;89.50
40257;DHT22;25977;45.462;9.210;2024-03-23T08:03:41;18.80;89.90
40257;DHT22;25977;45.462;9.210;2024-03-23T08:06:10;18.80;90.10
40257;DHT22;25977;45.462;9.210;2024-03-23T08:08:36;18.70;90.50
40257;DHT22;25977;45.462;9.210;2024-03-23T08:11:02;18.70;90.40
40257;DHT22;25977;45.462;9.210;2024-03-23T08:13:28;18.50;90.50
40257;DHT22;25977;45.462;9.210;2024-03-23T08:16:01;18.50;90.60
40257;DHT22;25977;45.462;9.210;2024-03-23T08:18:27;18.40;90.70
40257;DHT22;25977;45.462;9.210;2024-03-23T08:21:06;18.30;90.90
40257;DHT22;25977;45.462;9.210;2024-03-23T08:23:34;18.30;91.00
40257;DHT22;25977;45.462;9.210;2024-03-23T08:26:11;18.30;91.10
40257;DHT22;25977;45.462;9.210;2024-03-23T08:28:37;18.30;91.20
40257;DHT22;25977;45.462;9.210;2024-03-23T08:31:08;18.20;91.30
40257;DHT22;25977;45.462;9.210;2024-03-23T08:33:37;18.00;91.50
40257;DHT22;25977;45.462;9.210;2024-03-23T08:36:06;18.10;91.60
40257;DHT22;25977;45.462;9.210;2024-03-23T08:38:32;18.10;91.60
40257;DHT22;25977;45.462;9.210;2024-03-23T08:43:23;18.20;91.60
40257;DHT22;25977;45.462;9.210;2024-03-23T08:45:49;18.30;91.60
40257;DHT22;25977;45.462;9.210;2024-03-23T08:48:15;18.30;91.60
40257;DHT22;25977;45.462;9.210;2024-03-23T08:50:43;18.40;91.50
40257;DHT22;25977;45.462;9.210;2024-03-23T08:53:09;18.50;91.50
40257;DHT22;25977;45.462;9.210;2024-03-23T08:55:34;18.50;91.40
40257;DHT22;25977;45.462;9.210;2024-03-23T08:58:01;18.60;91.30
40257;DHT22;25977;45.462;9.210;2024-03-23T09:00:27;18.70;91.20
40257;DHT22;25977;45.462;9.210;2024-03-23T09:02:52;18.80;91.20
40257;DHT22;25977;45.462;9.210;2024-03-23T09:05:19;18.90;91.10
40257;DHT22;25977;45.462;9.210;2024-03-23T09:07:44;18.90;91.00
40257;DHT22;25977;45.462;9.210;2024-03-23T09:10:11;19.10;91.00
40257;DHT22;25977;45.462;9.210;2024-03-23T09:12:36;19.20;91.00
40257;DHT22;25977;45.462;9.210;2024-03-23T09:15:02;19.40;90.80
40257;DHT22;25977;45.462;9.210;2024-03-23T09:17:28;19.50;90.50
40257;DHT22;25977;45.462;9.210;2024-03-23T09:19:54;19.60;90.50
40257;DHT22;25977;45.462;9.210;2024-03-23T09:22:19;19.60;90.40
40257;DHT22;25977;45.462;9.210;2024-03-23T09:24:45;19.50;90.40
40257;DHT22;25977;45.462;9.210;2024-03-23T09:27:10;19.60;90.40
40257;DHT22;25977;45.462;9.210;2024-03-23T09:29:36;19.70;90.20
40257;DHT22;25977;45.462;9.210;2024-03-23T09:32:02;19.90;90.20
40257;DHT22;25977;45.462;9.210;2024-03-23T09:34:27;20.00;90.10
40257;DHT22;25977;45.462;9.210;2024-03-23T09:36:53;20.00;90.10
40257;DHT22;25977;45.462;9.210;2024-03-23T09:39:19;20.10;89.80
40257;DHT22;25977;45.462;9.210;2024-03-23T09:41:45;20.20;89.80
40257;DHT22;25977;45.462;9.210;2024-03-23T09:44:11;20.10;89.60
40257;DHT22;25977;45.462;9.210;2024-03-23T09:46:36;20.20;89.80
40257;DHT22;25977;45.462;9.210;2024-03-23T09:49:07;20.30;89.80
40257;DHT22;25977;45.462;9.210;2024-03-23T09:51:36;20.40;89.80
40257;DHT22;25977;45.462;9.210;2024-03-23T09:54:02;20.30;89.80
40257;DHT22;25977;45.462;9.210;2024-03-23T09:56:27;20.40;89.60
40257;DHT22;25977;45.462;9.210;2024-03-23T09:59:03;20.40;89.40
40257;DHT22;25977;45.462;9.210;2024-03-23T10:01:32;20.40;89.00
40257;DHT22;25977;45.462;9.210;2024-03-23T10:04:01;20.50;89.20
40257;DHT22;25977;45.462;9.210;2024-03-23T10:06:26;20.40;89.50
40257;DHT22;25977;45.462;9.210;2024-03-23T10:08:52;20.20;89.80
40257;DHT22;25977;45.462;9.210;2024-03-23T10:11:21;20.10;90.00
40257;DHT22;25977;45.462;9.210;2024-03-23T10:13:47;20.10;90.10
40257;DHT22;25977;45.462;9.210;2024-03-23T10:16:21;20.20;90.00
40257;DHT22;25977;45.462;9.210;2024-03-23T10:18:47;20.30;90.00
40257;DHT22;25977;45.462;9.210;2024-03-23T10:21:14;20.40;89.80
40257;DHT22;25977;45.462;9.210;2024-03-23T10:23:42;20.40;89.50
40257;DHT22;25977;45.462;9.210;2024-03-23T10:26:18;20.40;89.60
40257;DHT22;25977;45.462;9.210;2024-03-23T10:29:00;20.50;89.50
40257;DHT22;25977;45.462;9.210;2024-03-23T10:31:30;20.50;89.30
40257;DHT22;25977;45.462;9.210;2024-03-23T10:33:57;20.50;88.80
40257;DHT22;25977;45.462;9.210;2024-03-23T10:36:23;20.40;89.00
40257;DHT22;25977;45.462;9.210;2024-03-23T10:38:53;20.40;89.00
40257;DHT22;25977;45.462;9.210;2024-03-23T10:41:19;20.40;88.90
40257;DHT22;25977;45.462;9.210;2024-03-23T10:43:47;20.30;89.30
40257;DHT22;25977;45.462;9.210;2024-03-23T10:46:12;20.40;89.50
40257;DHT22;25977;45.462;9.210;2024-03-23T10:48:38;20.40;89.50
40257;DHT22;25977;45.462;9.210;2024-03-23T10:51:07;20.40;89.80
40257;DHT22;25977;45.462;9.210;2024-03-23T10:53:34;20.40;89.70
40257;DHT22;25977;45.462;9.210;2024-03-23T10:56:00;20.40;89.70
40257;DHT22;25977;45.462;9.210;2024-03-23T10:58:33;20.50;89.70
40257;DHT22;25977;45.462;9.210;2024-03-23T11:01:02;20.60;89.70
40257;DHT22;25977;45.462;9.210;2024-03-23T11:03:31;20.70;89.20
40257;DHT22;25977;45.462;9.210;2024-03-23T11:05:57;20.50;89.00
40257;DHT22;25977;45.462;9.210;2024-03-23T11:08:37;20.60;89.30
40257;DHT22;25977;45.462;9.210;2024-03-23T11:11:21;20.60;89.40
40257;DHT22;25977;45.462;9.210;2024-03-23T11:13:49;20.50;89.90
40257;DHT22;25977;45.462;9.210;2024-03-23T11:16:26;20.50;90.00
40257;DHT22;25977;45.462;9.210;2024-03-23T11:19:37;20.60;90.00
40257;DHT22;25977;45.462;9.210;2024-03-23T11:22:03;20.80;89.90
40257;DHT22;25977;45.462;9.210;2024-03-23T11:24:30;20.80;89.70
40257;DHT22;25977;45.462;9.210;2024-03-23T11:26:56;20.80;89.70
40257;DHT22;25977;45.462;9.210;2024-03-23T11:29:25;20.90;89.20
40257;DHT22;25977;45.462;9.210;2024-03-23T11:31:52;20.50;89.50
40257;DHT22;25977;45.462;9.210;2024-03-23T11:34:21;20.60;89.60
40257;DHT22;25977;45.462;9.210;2024-03-23T11:36:48;20.70;89.40
40257;DHT22;25977;45.462;9.210;2024-03-23T11:39:15;20.60;89.70
40257;DHT22;25977;45.462;9.210;2024-03-23T11:41:51;20.60;89.90
40257;DHT22;25977;45.462;9.210;2024-03-23T11:44:21;20.60;89.80
40257;DHT22;25977;45.462;9.210;2024-03-23T11:46:48;20.60;89.90
40257;DHT22;25977;45.462;9.210;2024-03-23T11:49:28;20.50;89.60
40257;DHT22;25977;45.462;9.210;2024-03-23T11:51:56;20.50;89.70
40257;DHT22;25977;45.462;9.210;2024-03-23T11:54:26;20.50;89.50
40257;DHT22;25977;45.462;9.210;2024-03-23T11:57:03;20.50;89.60
40257;DHT22;25977;45.462;9.210;2024-03-23T11:59:40;20.50;90.00
40257;DHT22;25977;45.462;9.210;2024-03-23T12:02:07;20.40;90.00
40257;DHT22;25977;45.462;9.210;2024-03-23T12:04:34;20.40;90.00
40257;DHT22;25977;45.462;9.210;2024-03-23T12:07:14;20.40;89.80
40257;DHT22;25977;45.462;9.210;2024-03-23T12:09:40;20.40;89.90
40257;DHT22;25977;45.462;9.210;2024-03-23T12:12:24;20.40;89.90
40257;DHT22;25977;45.462;9.210;2024-03-23T12:15:07;20.40;89.80
40257;DHT22;25977;45.462;9.210;2024-03-23T12:17:33;20.30;89.40
40257;DHT22;25977;45.462;9.210;2024-03-23T12:20:00;20.30;88.80
40257;DHT22;25977;45.462;9.210;2024-03-23T12:22:26;20.40;88.50
40257;DHT22;25977;45.462;9.210;2024-03-23T12:24:52;20.30;88.10
40257;DHT22;25977;45.462;9.210;2024-03-23T12:27:18;20.40;88.20
40257;DHT22;25977;45.462;9.210;2024-03-23T12:29:44;20.50;88.10
40257;DHT22;25977;45.462;9.210;2024-03-23T12:32:14;20.50;87.80
40257;DHT22;25977;45.462;9.210;2024-03-23T12:34:40;20.70;87.40
40257;DHT22;25977;45.462;9.210;2024-03-23T12:37:07;20.70;86.80
40257;DHT22;25977;45.462;9.210;2024-03-23T12:39:33;20.80;86.90
40257;DHT22;25977;45.462;9.210;2024-03-23T12:42:00;20.90;86.80
40257;DHT22;25977;45.462;9.210;2024-03-23T12:44:26;20.80;86.80
40257;DHT22;25977;45.462;9.210;2024-03-23T12:46:52;21.00;86.90
40257;DHT22;25977;45.462;9.210;2024-03-23T12:49:17;21.10;86.30
40257;DHT22;25977;45.462;9.210;2024-03-23T12:51:57;21.10;86.30
40257;DHT22;25977;45.462;9.210;2024-03-23T12:54:23;21.20;86.30
40257;DHT22;25977;45.462;9.210;2024-03-23T12:56:49;21.10;85.80
40257;DHT22;25977;45.462;9.210;2024-03-23T12:59:15;21.10;86.20
40257;DHT22;25977;45.462;9.210;2024-03-23T13:01:42;20.90;86.10
40257;DHT22;25977;45.462;9.210;2024-03-23T13:04:08;20.90;86.20
40257;DHT22;25977;45.462;9.210;2024-03-23T13:06:34;21.00;86.20
40257;DHT22;25977;45.462;9.210;2024-03-23T13:09:02;20.80;86.10
40257;DHT22;25977;45.462;9.210;2024-03-23T13:11:28;20.60;87.30
40257;DHT22;25977;45.462;9.210;2024-03-23T13:13:54;20.30;88.80
40257;DHT22;25977;45.462;9.210;2024-03-23T13:16:20;20.10;89.50
40257;DHT22;25977;45.462;9.210;2024-03-23T13:18:45;19.50;90.50
40257;DHT22;25977;45.462;9.210;2024-03-23T13:21:11;19.50;90.70
40257;DHT22;25977;45.462;9.210;2024-03-23T13:23:37;19.40;90.80
40257;DHT22;25977;45.462;9.210;2024-03-23T13:26:04;19.20;91.10
40257;DHT22;25977;45.462;9.210;2024-03-23T13:28:29;19.30;91.00
40257;DHT22;25977;45.462;9.210;2024-03-23T13:30:56;19.50;90.80
40257;DHT22;25977;45.462;9.210;2024-03-23T13:33:23;19.60;90.80
40257;DHT22;25977;45.462;9.210;2024-03-23T13:35:52;19.80;90.70
40257;DHT22;25977;45.462;9.210;2024-03-23T13:38:18;19.90;90.60
40257;DHT22;25977;45.462;9.210;2024-03-23T13:40:55;20.00;90.50
40257;DHT22;25977;45.462;9.210;2024-03-23T13:43:22;20.10;90.40
40257;DHT22;25977;45.462;9.210;2024-03-23T13:45:49;20.10;90.30
40257;DHT22;25977;45.462;9.210;2024-03-23T13:48:16;20.10;90.20
40257;DHT22;25977;45.462;9.210;2024-03-23T13:50:43;20.10;90.30
40257;DHT22;25977;45.462;9.210;2024-03-23T13:53:09;20.10;90.50
40257;DHT22;25977;45.462;9.210;2024-03-23T13:55:34;20.10;90.20
40257;DHT22;25977;45.462;9.210;2024-03-23T13:58:01;20.00;90.20
40257;DHT22;25977;45.462;9.210;2024-03-23T14:00:27;20.10;90.30
40257;DHT22;25977;45.462;9.210;2024-03-23T14:02:52;20.00;90.20
40257;DHT22;25977;45.462;9.210;2024-03-23T14:05:22;20.00;90.30
40257;DHT22;25977;45.462;9.210;2024-03-23T14:07:48;20.00;90.30
40257;DHT22;25977;45.462;9.210;2024-03-23T14:10:14;20.10;90.30
40257;DHT22;25977;45.462;9.210;2024-03-23T14:12:40;20.20;90.20
40257;DHT22;25977;45.462;9.210;2024-03-23T14:15:07;20.30;90.20
40257;DHT22;25977;45.462;9.210;2024-03-23T14:17:32;20.30;90.20
40257;DHT22;25977;45.462;9.210;2024-03-23T14:19:58;20.40;90.00
40257;DHT22;25977;45.462;9.210;2024-03-23T14:22:27;20.50;89.60
40257;DHT22;25977;45.462;9.210;2024-03-23T14:24:53;20.60;89.30
40257;DHT22;25977;45.462;9.210;2024-03-23T14:27:19;20.70;89.40
40257;DHT22;25977;45.462;9.210;2024-03-23T14:29:48;20.80;89.10
40257;DHT22;25977;45.462;9.210;2024-03-23T14:32:14;20.90;88.70
40257;DHT22;25977;45.462;9.210;2024-03-23T14:34:40;20.90;88.60
40257;DHT22;25977;45.462;9.210;2024-03-23T14:37:06;20.90;88.30
40257;DHT22;25977;45.462;9.210;2024-03-23T14:39:32;20.70;89.00
40257;DHT22;25977;45.462;9.210;2024-03-23T14:42:00;20.70;88.60
40257;DHT22;25977;45.462;9.210;2024-03-23T14:44:27;20.70;88.90
40257;DHT22;25977;45.462;9.210;2024-03-23T14:46:53;20.80;88.90
40257;DHT22;25977;45.462;9.210;2024-03-23T14:49:20;20.70;88.90
40257;DHT22;25977;45.462;9.210;2024-03-23T14:51:46;20.80;88.90
40257;DHT22;25977;45.462;9.210;2024-03-23T14:54:12;20.90;88.90
40257;DHT22;25977;45.462;9.210;2024-03-23T14:56:38;20.80;88.60
40257;DHT22;25977;45.462;9.210;2024-03-23T14:59:04;20.70;87.50
40257;DHT22;25977;45.462;9.210;2024-03-23T15:01:31;20.70;87.60
40257;DHT22;25977;45.462;9.210;2024-03-23T15:03:57;20.80;87.70
40257;DHT22;25977;45.462;9.210;2024-03-23T15:06:23;20.80;87.40
40257;DHT22;25977;45.462;9.210;2024-03-23T15:08:48;20.80;87.60
40257;DHT22;25977;45.462;9.210;2024-03-23T15:11:14;20.90;87.90
40257;DHT22;25977;45.462;9.210;2024-03-23T15:13:43;20.90;87.50
40257;DHT22;25977;45.462;9.210;2024-03-23T15:16:09;20.70;88.10
40257;DHT22;25977;45.462;9.210;2024-03-23T15:18:35;20.70;88.90
40257;DHT22;25977;45.462;9.210;2024-03-23T15:21:02;20.50;89.10
40257;DHT22;25977;45.462;9.210;2024-03-23T15:23:29;20.40;89.50
40257;DHT22;25977;45.462;9.210;2024-03-23T15:25:56;20.40;90.00
40257;DHT22;25977;45.462;9.210;2024-03-23T15:28:25;20.30;90.50
40257;DHT22;25977;45.462;9.210;2024-03-23T15:30:58;20.20;90.90
40257;DHT22;25977;45.462;9.210;2024-03-23T15:33:24;20.20;91.20
40257;DHT22;25977;45.462;9.210;2024-03-23T15:35:53;20.20;91.40
40257;DHT22;25977;45.462;9.210;2024-03-23T15:38:18;20.20;91.70
40257;DHT22;25977;45.462;9.210;2024-03-23T15:40:51;20.00;92.10
40257;DHT22;25977;45.462;9.210;2024-03-23T15:43:16;20.00;92.40
40257;DHT22;25977;45.462;9.210;2024-03-23T15:45:42;20.00;93.00
40257;DHT22;25977;45.462;9.210;2024-03-23T15:48:08;19.90;93.00
40257;DHT22;25977;45.462;9.210;2024-03-23T15:50:34;19.80;93.10
40257;DHT22;25977;45.462;9.210;2024-03-23T15:52:59;19.80;93.70
40257;DHT22;25977;45.462;9.210;2024-03-23T15:55:25;19.80;93.60
40257;DHT22;25977;45.462;9.210;2024-03-23T15:57:51;19.90;93.40
40257;DHT22;25977;45.462;9.210;2024-03-23T16:00:17;19.90;93.40
40257;DHT22;25977;45.462;9.210;2024-03-23T16:02:43;19.90;93.30
40257;DHT22;25977;45.462;9.210;2024-03-23T16:05:09;19.90;93.60
40257;DHT22;25977;45.462;9.210;2024-03-23T16:07:37;19.90;93.70
40257;DHT22;25977;45.462;9.210;2024-03-23T16:10:05;19.90;93.80
40257;DHT22;25977;45.462;9.210;2024-03-23T16:12:33;19.90;93.60
40257;DHT22;25977;45.462;9.210;2024-03-23T16:14:59;20.00;93.50
40257;DHT22;25977;45.462;9.210;2024-03-23T16:17:25;19.90;93.30
40257;DHT22;25977;45.462;9.210;2024-03-23T16:19:50;20.00;93.30
40257;DHT22;25977;45.462;9.210;2024-03-23T16:22:17;19.90;93.50
40257;DHT22;25977;45.462;9.210;2024-03-23T16:24:44;20.00;93.20
40257;DHT22;25977;45.462;9.210;2024-03-23T16:27:10;20.00;93.00